createdAt,value
2018-05-27T00:00:03.626Z,99.99
2018-05-27T00:01:03.590Z,99.99
2018-05-27T00:02:03.615Z,99.99
2018-05-27T00:03:03.544Z,99.99
2018-05-27T00:04:03.521Z,99.99
2018-05-27T00:05:03.494Z,99.99
2018-05-27T00:06:03.467Z,99.99
2018-05-27T00:07:03.486Z,99.99
2018-05-27T00:08:03.417Z,99.99
2018-05-27T00:09:03.389Z,99.99
2018-05-27T00:10:03.404Z,99.99
2018-05-27T00:11:03.336Z,99.99
2018-05-27T00:12:03.313Z,99.99
2018-05-27T00:13:03.340Z,99.99
2018-05-27T00:14:03.261Z,99.99
2018-05-27T00:15:03.233Z,99.99
2018-05-27T00:16:03.261Z,99.99
2018-05-27T00:17:03.930Z,99.99
2018-05-27T00:18:03.160Z,99.99
2018-05-27T00:19:03.486Z,99.99
2018-05-27T00:20:03.111Z,99.99
2018-05-27T00:21:03.082Z,99.99
2018-05-27T00:22:03.058Z,99.99
2018-05-27T00:23:03.490Z,99.99
2018-05-27T00:24:03.050Z,99.99
2018-05-27T00:25:02.984Z,99.99
2018-05-27T00:26:03.936Z,99.99
2018-05-27T00:27:02.929Z,99.99
2018-05-27T00:28:03.435Z,99.99
2018-05-27T00:29:02.923Z,99.99
2018-05-27T00:30:02.913Z,99.99
2018-05-27T00:31:02.829Z,99.99
2018-05-27T00:32:03.439Z,99.99
2018-05-27T00:33:02.778Z,99.99
2018-05-27T00:34:03.447Z,99.99
2018-05-27T00:35:02.772Z,99.99
2018-05-27T00:36:02.719Z,99.99
2018-05-27T00:37:03.437Z,99.99
2018-05-27T00:38:02.654Z,99.99
2018-05-27T00:39:02.989Z,99.99
2018-05-27T00:40:02.650Z,99.99
2018-05-27T00:41:02.572Z,99.99
2018-05-27T00:42:03.436Z,99.99
2018-05-27T00:43:02.538Z,99.99
2018-05-27T00:44:03.438Z,99.99
2018-05-27T00:45:02.524Z,99.99
2018-05-27T00:46:02.446Z,99.99
2018-05-27T00:47:02.940Z,99.99
2018-05-27T00:48:02.395Z,99.99
2018-05-27T00:49:02.367Z,99.99
2018-05-27T00:50:02.496Z,99.99
2018-05-27T00:51:02.336Z,99.99
2018-05-27T00:52:02.366Z,99.99
2018-05-27T00:53:02.941Z,99.99
2018-05-27T00:54:02.255Z,99.99
2018-05-27T00:55:02.223Z,99.99
2018-05-27T00:56:02.237Z,99.99
2018-05-27T00:57:02.957Z,99.99
2018-05-27T00:58:02.136Z,99.99
2018-05-27T00:59:02.112Z,99.99
2018-05-27T01:00:02.945Z,99.99
2018-05-27T01:01:02.102Z,99.99
2018-05-27T01:02:02.065Z,99.99
2018-05-27T01:03:02.943Z,99.99
2018-05-27T01:04:02.034Z,99.99
2018-05-27T01:05:01.954Z,99.99
2018-05-27T01:06:01.937Z,99.99
2018-05-27T01:07:01.966Z,99.99
2018-05-27T01:08:01.887Z,99.99
2018-05-27T01:09:01.855Z,99.99
2018-05-27T01:10:02.443Z,99.99
2018-05-27T01:11:01.809Z,99.99
2018-05-27T01:12:01.820Z,99.99
2018-05-27T01:13:02.002Z,99.99
2018-05-27T01:14:01.727Z,99.99
2018-05-27T01:15:01.713Z,99.99
2018-05-27T01:16:01.674Z,99.99
2018-05-27T01:17:01.663Z,99.99
2018-05-27T01:18:01.667Z,99.99
2018-05-27T01:19:02.441Z,99.99
2018-05-27T01:20:01.575Z,99.99
2018-05-27T01:21:01.552Z,99.99
2018-05-27T01:22:02.352Z,99.99
2018-05-27T01:23:02.007Z,99.99
2018-05-27T01:24:01.472Z,99.99
2018-05-27T01:25:01.450Z,99.99
2018-05-27T01:26:01.949Z,99.99
2018-05-27T01:27:01.391Z,99.99
2018-05-27T01:28:01.422Z,99.99
2018-05-27T01:29:01.945Z,99.99
2018-05-27T01:30:01.315Z,99.99
2018-05-27T01:31:01.284Z,99.99
2018-05-27T01:32:01.265Z,99.99
2018-05-27T01:33:01.505Z,99.99
2018-05-27T01:34:01.213Z,99.99
2018-05-27T01:35:01.184Z,99.99
2018-05-27T01:36:01.959Z,99.99
2018-05-27T01:37:01.136Z,99.99
2018-05-27T01:38:01.170Z,99.99
2018-05-27T01:39:01.950Z,99.99
2018-05-27T01:40:01.055Z,99.99
2018-05-27T01:41:01.026Z,99.99
2018-05-27T01:42:01.002Z,99.99
2018-05-27T01:43:01.029Z,99.99
2018-05-27T01:44:00.953Z,99.99
2018-05-27T01:45:01.455Z,99.99
2018-05-27T01:46:00.904Z,99.99
2018-05-27T01:47:00.872Z,99.99
2018-05-27T01:48:00.895Z,99.99
2018-05-27T01:49:01.449Z,99.99
2018-05-27T01:50:00.799Z,99.99
2018-05-27T01:51:00.773Z,99.99
2018-05-27T01:52:00.744Z,99.99
2018-05-27T01:53:01.001Z,99.99
2018-05-27T01:54:00.737Z,99.99
2018-05-27T01:55:00.679Z,99.99
2018-05-27T01:56:01.451Z,99.99
2018-05-27T01:57:00.616Z,99.99
2018-05-27T01:58:00.593Z,99.99
2018-05-27T01:59:01.018Z,99.99
2018-05-27T02:00:00.537Z,99.99
2018-05-27T02:01:00.568Z,99.99
2018-05-27T02:02:01.461Z,99.99
2018-05-27T02:03:00.509Z,99.99
2018-05-27T02:04:00.521Z,99.99
2018-05-27T02:05:00.412Z,99.99
2018-05-27T02:06:00.382Z,99.99
2018-05-27T02:07:00.360Z,99.99
2018-05-27T02:08:00.951Z,99.99
2018-05-27T02:09:00.369Z,99.99
2018-05-27T02:10:00.277Z,99.99
2018-05-27T02:11:00.959Z,99.99
2018-05-27T02:12:00.231Z,99.99
2018-05-27T02:13:00.201Z,99.99
2018-05-27T02:14:00.216Z,99.99
2018-05-27T02:15:00.155Z,99.99
2018-05-27T02:16:00.954Z,99.99
2018-05-27T02:17:00.118Z,99.99
2018-05-27T02:18:00.077Z,99.99
2018-05-27T02:19:00.507Z,99.99
2018-05-27T02:20:00.021Z,99.99
2018-05-27T02:21:00.959Z,99.99
2018-05-27T02:21:59.969Z,99.99
2018-05-27T02:22:59.966Z,99.99
2018-05-27T02:24:00.026Z,99.99
2018-05-27T02:24:59.890Z,99.99
2018-05-27T02:25:59.864Z,99.99
2018-05-27T02:26:59.850Z,99.99
2018-05-27T02:28:00.460Z,99.99
2018-05-27T02:28:59.829Z,99.99
2018-05-27T02:29:59.764Z,99.99
2018-05-27T02:30:59.785Z,99.99
2018-05-27T02:31:59.712Z,99.99
2018-05-27T02:32:59.683Z,99.99
2018-05-27T02:33:59.655Z,99.99
2018-05-27T02:34:59.634Z,99.99
2018-05-27T02:35:59.653Z,99.99
2018-05-27T02:36:59.585Z,99.99
2018-05-27T02:38:00.017Z,99.99
2018-05-27T02:38:59.548Z,99.99
2018-05-27T02:39:59.554Z,99.99
2018-05-27T02:41:00.018Z,99.99
2018-05-27T02:41:59.504Z,99.99
2018-05-27T02:42:59.428Z,99.99
2018-05-27T02:43:59.453Z,99.99
2018-05-27T02:44:59.376Z,99.99
2018-05-27T02:45:59.511Z,99.99
2018-05-27T02:46:59.329Z,99.99
2018-05-27T02:47:59.525Z,99.99
2018-05-27T02:48:59.272Z,99.99
2018-05-27T02:49:59.241Z,99.99
2018-05-27T02:50:59.219Z,99.99
2018-05-27T02:51:59.960Z,99.99
2018-05-27T02:52:59.207Z,99.99
2018-05-27T02:53:59.135Z,99.99
2018-05-27T02:54:59.114Z,99.99
2018-05-27T02:55:59.133Z,99.99
2018-05-27T02:56:59.060Z,99.99
2018-05-27T02:57:59.077Z,99.99
2018-05-27T02:58:59.010Z,99.99
2018-05-27T02:59:59.962Z,99.99
2018-05-27T03:00:58.953Z,99.99
2018-05-27T03:01:58.976Z,99.99
2018-05-27T03:02:59.024Z,99.99
2018-05-27T03:03:58.880Z,99.99
2018-05-27T03:04:58.855Z,99.99
2018-05-27T03:05:58.824Z,99.99
2018-05-27T03:06:59.462Z,99.99
2018-05-27T03:07:58.821Z,99.99
2018-05-27T03:08:58.746Z,99.99
2018-05-27T03:09:59.465Z,99.99
2018-05-27T03:10:58.709Z,99.99
2018-05-27T03:11:58.712Z,99.99
2018-05-27T03:12:59.473Z,99.99
2018-05-27T03:13:58.673Z,99.99
2018-05-27T03:14:58.591Z,99.99
2018-05-27T03:15:58.566Z,99.99
2018-05-27T03:16:58.534Z,99.99
2018-05-27T03:17:58.524Z,99.99
2018-05-27T03:18:58.534Z,99.99
2018-05-27T03:19:58.456Z,99.99
2018-05-27T03:20:58.437Z,99.99
2018-05-27T03:21:58.406Z,99.99
2018-05-27T03:22:58.430Z,99.99
2018-05-27T03:23:58.363Z,99.99
2018-05-27T03:24:58.328Z,99.99
2018-05-27T03:25:58.302Z,99.99
2018-05-27T03:26:58.278Z,99.99
2018-05-27T03:27:58.303Z,99.99
2018-05-27T03:28:58.227Z,99.99
2018-05-27T03:29:58.202Z,99.99
2018-05-27T03:30:58.172Z,99.99
2018-05-27T03:31:58.145Z,99.99
2018-05-27T03:32:58.165Z,99.99
2018-05-27T03:33:58.093Z,99.99
2018-05-27T03:34:58.114Z,99.99
2018-05-27T03:35:58.040Z,99.99
2018-05-27T03:36:58.015Z,99.99
2018-05-27T03:37:58.038Z,99.99
2018-05-27T03:38:57.967Z,99.99
2018-05-27T03:39:57.938Z,99.99
2018-05-27T03:40:57.919Z,99.99
2018-05-27T03:41:57.934Z,99.99
2018-05-27T03:42:57.860Z,99.99
2018-05-27T03:43:57.877Z,99.99
2018-05-27T03:44:57.807Z,99.99
2018-05-27T03:45:57.784Z,99.99
2018-05-27T03:46:57.756Z,99.99
2018-05-27T03:47:57.728Z,99.99
2018-05-27T03:48:57.753Z,99.99
2018-05-27T03:49:57.679Z,99.99
2018-05-27T03:50:57.654Z,99.99
2018-05-27T03:51:57.677Z,99.99
2018-05-27T03:52:57.597Z,99.99
2018-05-27T03:53:57.580Z,99.99
2018-05-27T03:54:57.553Z,99.99
2018-05-27T03:55:57.568Z,99.99
2018-05-27T03:56:57.554Z,99.99
2018-05-27T03:57:57.495Z,99.99
2018-05-27T03:58:57.445Z,99.99
2018-05-27T03:59:57.422Z,99.99
2018-05-27T04:00:57.396Z,99.99
2018-05-27T04:01:57.415Z,99.99
2018-05-27T04:02:57.346Z,99.99
2018-05-27T04:03:57.316Z,99.99
2018-05-27T04:04:57.298Z,99.99
2018-05-27T04:05:57.313Z,99.99
2018-05-27T04:06:57.240Z,99.99
2018-05-27T04:07:57.268Z,99.99
2018-05-27T04:08:57.191Z,99.99
2018-05-27T04:09:57.169Z,99.99
2018-05-27T04:10:57.146Z,99.99
2018-05-27T04:11:57.977Z,99.99
2018-05-27T04:12:57.131Z,99.99
2018-05-27T04:13:57.063Z,99.99
2018-05-27T04:14:57.035Z,99.99
2018-05-27T04:15:57.989Z,99.99
2018-05-27T04:16:57.006Z,99.99
2018-05-27T04:17:57.000Z,99.99
2018-05-27T04:18:56.981Z,99.99
2018-05-27T04:19:56.909Z,99.99
2018-05-27T04:20:56.881Z,99.99
2018-05-27T04:21:56.862Z,99.99
2018-05-27T04:22:56.887Z,99.99
2018-05-27T04:23:56.818Z,99.99
2018-05-27T04:24:56.783Z,99.99
2018-05-27T04:25:56.754Z,99.99
2018-05-27T04:26:56.733Z,99.99
2018-05-27T04:27:56.753Z,99.99
2018-05-27T04:28:56.746Z,99.99
2018-05-27T04:29:56.658Z,99.99
2018-05-27T04:30:56.631Z,99.99
2018-05-27T04:31:56.609Z,99.99
2018-05-27T04:32:56.580Z,99.99
2018-05-27T04:33:56.605Z,99.99
2018-05-27T04:34:56.537Z,99.99
2018-05-27T04:35:56.519Z,99.99
2018-05-27T04:36:56.479Z,99.99
2018-05-27T04:37:56.459Z,99.99
2018-05-27T04:38:56.469Z,99.99
2018-05-27T04:39:56.456Z,99.99
2018-05-27T04:40:56.413Z,99.99
2018-05-27T04:41:56.362Z,99.99
2018-05-27T04:42:56.341Z,99.99
2018-05-27T04:43:56.315Z,99.99
2018-05-27T04:44:56.329Z,99.99
2018-05-27T04:45:57.002Z,99.99
2018-05-27T04:46:56.241Z,99.99
2018-05-27T04:47:56.220Z,99.99
2018-05-27T04:48:56.188Z,99.99
2018-05-27T04:49:56.162Z,99.99
2018-05-27T04:50:56.176Z,99.99
2018-05-27T04:51:56.127Z,99.99
2018-05-27T04:52:56.085Z,99.99
2018-05-27T04:53:56.061Z,99.99
2018-05-27T04:54:56.084Z,99.99
2018-05-27T04:55:56.008Z,99.99
2018-05-27T04:56:55.984Z,99.99
2018-05-27T04:57:55.963Z,99.99
2018-05-27T04:58:55.984Z,99.99
2018-05-27T04:59:55.963Z,99.99
2018-05-27T05:00:55.916Z,99.99
2018-05-27T05:01:55.873Z,99.99
2018-05-27T05:02:55.844Z,99.99
2018-05-27T05:03:55.857Z,99.99
2018-05-27T05:04:55.786Z,99.99
2018-05-27T05:05:55.769Z,99.99
2018-05-27T05:06:55.782Z,99.99
2018-05-27T05:07:55.717Z,99.99
2018-05-27T05:08:55.690Z,99.99
2018-05-27T05:09:55.708Z,99.99
2018-05-27T05:10:55.641Z,99.99
2018-05-27T05:11:55.619Z,99.99
2018-05-27T05:12:55.590Z,99.99
2018-05-27T05:13:55.613Z,99.99
2018-05-27T05:14:55.636Z,99.99
2018-05-27T05:15:55.527Z,99.99
2018-05-27T05:16:55.491Z,99.99
2018-05-27T05:17:55.473Z,99.99
2018-05-27T05:18:55.489Z,99.99
2018-05-27T05:19:55.475Z,99.99
2018-05-27T05:20:55.398Z,99.99
2018-05-27T05:21:55.423Z,99.91
2018-05-27T05:22:55.348Z,99.99
2018-05-27T05:23:55.353Z,99.99
2018-05-27T05:24:55.553Z,99.99
2018-05-27T05:25:55.275Z,99.99
2018-05-27T05:26:55.249Z,99.82
2018-05-27T05:27:55.228Z,99.63
2018-05-27T05:28:55.209Z,98.67
2018-05-27T05:29:55.237Z,99.15
2018-05-27T05:30:55.153Z,98.62
2018-05-27T05:31:55.137Z,98.19
2018-05-27T05:32:55.111Z,98.91
2018-05-27T05:33:55.086Z,98.05
2018-05-27T05:34:55.105Z,97.76
2018-05-27T05:35:55.037Z,97.66
2018-05-27T05:36:55.069Z,98.05
2018-05-27T05:37:54.987Z,97.76
2018-05-27T05:38:54.966Z,97.66
2018-05-27T05:39:54.942Z,97.86
2018-05-27T05:40:54.916Z,97.38
2018-05-27T05:41:54.941Z,97.38
2018-05-27T05:42:54.871Z,97.09
2018-05-27T05:43:54.849Z,97.09
2018-05-27T05:44:54.823Z,96.56
2018-05-27T05:45:54.801Z,96.61
2018-05-27T05:46:54.827Z,96.56
2018-05-27T05:47:54.753Z,95.89
2018-05-27T05:48:54.732Z,95.03
2018-05-27T05:49:54.707Z,96.18
2018-05-27T05:50:54.689Z,95.50
2018-05-27T05:51:54.714Z,94.93
2018-05-27T05:52:54.636Z,94.83
2018-05-27T05:53:54.626Z,94.54
2018-05-27T05:54:54.589Z,94.26
2018-05-27T05:55:54.569Z,94.11
2018-05-27T05:56:54.583Z,94.01
2018-05-27T05:57:54.557Z,94.49
2018-05-27T05:58:54.514Z,94.01
2018-05-27T05:59:54.475Z,94.01
2018-05-27T06:00:54.449Z,94.11
2018-05-27T06:01:54.427Z,93.63
2018-05-27T06:02:54.449Z,93.73
2018-05-27T06:03:54.387Z,94.01
2018-05-27T06:04:54.356Z,93.54
2018-05-27T06:05:54.339Z,93.25
2018-05-27T06:06:54.313Z,93.34
2018-05-27T06:07:54.334Z,93.44
2018-05-27T06:08:54.314Z,92.81
2018-05-27T06:09:54.245Z,92.57
2018-05-27T06:10:54.220Z,92.33
2018-05-27T06:11:54.197Z,92.24
2018-05-27T06:12:54.178Z,92.62
2018-05-27T06:13:54.204Z,92.14
2018-05-27T06:14:54.128Z,92.24
2018-05-27T06:15:54.107Z,91.75
2018-05-27T06:16:54.086Z,92.05
2018-05-27T06:17:54.110Z,92.09
2018-05-27T06:18:54.079Z,91.47
2018-05-27T06:19:54.068Z,91.61
2018-05-27T06:20:53.991Z,91.13
2018-05-27T06:21:53.973Z,91.22
2018-05-27T06:22:53.943Z,91.13
2018-05-27T06:23:53.928Z,90.84
2018-05-27T06:24:53.947Z,90.26
2018-05-27T06:25:53.879Z,90.26
2018-05-27T06:26:53.860Z,90.84
2018-05-27T06:27:53.854Z,90.84
2018-05-27T06:28:54.467Z,89.88
2018-05-27T06:29:53.836Z,89.11
2018-05-27T06:30:53.771Z,89.01
2018-05-27T06:31:53.744Z,88.63
2018-05-27T06:32:53.721Z,89.21
2018-05-27T06:33:53.750Z,89.78
2018-05-27T06:34:53.677Z,89.01
2018-05-27T06:35:53.708Z,88.34
2018-05-27T06:36:53.635Z,88.96
2018-05-27T06:37:53.627Z,88.96
2018-05-27T06:38:53.586Z,88.63
2018-05-27T06:39:53.564Z,88.57
2018-05-27T06:40:53.600Z,88.87
2018-05-27T06:41:53.551Z,88.57
2018-05-27T06:42:53.517Z,89.06
2018-05-27T06:43:53.476Z,88.67
2018-05-27T06:44:53.456Z,88.67
2018-05-27T06:45:53.481Z,88.67
2018-05-27T06:46:53.463Z,88.57
2018-05-27T06:47:53.392Z,88.39
2018-05-27T06:48:53.367Z,88.39
2018-05-27T06:49:53.356Z,88.24
2018-05-27T06:50:53.369Z,87.95
2018-05-27T06:51:53.299Z,87.95
2018-05-27T06:52:53.284Z,87.66
2018-05-27T06:53:53.253Z,88.04
2018-05-27T06:54:53.232Z,87.66
2018-05-27T06:55:53.260Z,87.27
2018-05-27T06:56:53.193Z,86.89
2018-05-27T06:57:53.215Z,86.99
2018-05-27T06:58:53.148Z,86.99
2018-05-27T06:59:53.128Z,86.89
2018-05-27T07:00:53.108Z,87.18
2018-05-27T07:01:53.082Z,86.89
2018-05-27T07:02:53.105Z,86.51
2018-05-27T07:03:53.038Z,86.41
2018-05-27T07:04:53.068Z,86.60
2018-05-27T07:05:52.996Z,86.89
2018-05-27T07:06:52.974Z,87.12
2018-05-27T07:07:53.005Z,85.87
2018-05-27T07:08:52.927Z,85.20
2018-05-27T07:09:52.917Z,85.20
2018-05-27T07:10:52.884Z,85.49
2018-05-27T07:11:52.874Z,85.49
2018-05-27T07:12:52.887Z,85.00
2018-05-27T07:13:52.848Z,85.14
2018-05-27T07:14:52.851Z,84.72
2018-05-27T07:15:52.823Z,85.05
2018-05-27T07:16:52.764Z,84.38
2018-05-27T07:17:52.735Z,84.38
2018-05-27T07:18:52.712Z,83.99
2018-05-27T07:19:52.691Z,84.18
2018-05-27T07:20:52.731Z,84.09
2018-05-27T07:21:52.647Z,84.28
2018-05-27T07:22:55.518Z,83.89
2018-05-27T07:23:52.612Z,84.28
2018-05-27T07:24:52.593Z,83.70
2018-05-27T07:25:52.616Z,83.84
2018-05-27T07:26:52.547Z,83.74
2018-05-27T07:27:52.525Z,83.64
2018-05-27T07:28:52.509Z,82.78
2018-05-27T07:29:52.480Z,82.97
2018-05-27T07:30:52.513Z,83.55
2018-05-27T07:31:52.441Z,83.26
2018-05-27T07:32:52.928Z,83.07
2018-05-27T07:33:52.412Z,82.59
2018-05-27T07:34:52.372Z,82.29
2018-05-27T07:35:52.400Z,82.87
2018-05-27T07:36:52.332Z,82.49
2018-05-27T07:37:52.311Z,81.91
2018-05-27T07:38:52.290Z,81.04
2018-05-27T07:39:52.271Z,82.49
2018-05-27T07:40:52.302Z,81.33
2018-05-27T07:41:52.229Z,81.24
2018-05-27T07:42:52.212Z,81.24
2018-05-27T07:43:52.189Z,81.62
2018-05-27T07:44:52.170Z,81.33
2018-05-27T07:45:52.191Z,80.69
2018-05-27T07:46:52.123Z,80.69
2018-05-27T07:47:52.132Z,81.09
2018-05-27T07:48:52.083Z,81.85
2018-05-27T07:49:52.060Z,80.89
2018-05-27T07:50:52.078Z,80.51
2018-05-27T07:51:52.033Z,80.22
2018-05-27T07:52:52.085Z,80.60
2018-05-27T07:53:51.976Z,80.89
2018-05-27T07:54:51.966Z,79.83
2018-05-27T07:55:51.939Z,80.31
2018-05-27T07:56:51.919Z,79.54
2018-05-27T07:57:51.949Z,78.67
2018-05-27T07:58:51.873Z,79.87
2018-05-27T07:59:51.865Z,78.19
2018-05-27T08:00:51.880Z,77.33
2018-05-27T08:01:51.815Z,77.51
2018-05-27T08:02:51.848Z,76.98
2018-05-27T08:03:51.776Z,77.84
2018-05-27T08:04:51.752Z,78.23
2018-05-27T08:05:51.736Z,78.03
2018-05-27T08:06:51.710Z,77.84
2018-05-27T08:07:51.755Z,76.78
2018-05-27T08:08:51.670Z,76.68
2018-05-27T08:09:51.645Z,77.36
2018-05-27T08:10:51.633Z,76.98
2018-05-27T08:11:51.715Z,76.10
2018-05-27T08:12:51.687Z,75.82
2018-05-27T08:13:51.573Z,75.53
2018-05-27T08:14:52.534Z,76.01
2018-05-27T08:15:51.526Z,75.72
2018-05-27T08:16:51.508Z,74.85
2018-05-27T08:17:51.547Z,75.47
2018-05-27T08:18:51.470Z,75.18
2018-05-27T08:19:51.522Z,75.27
2018-05-27T08:20:51.428Z,75.47
2018-05-27T08:21:51.417Z,74.99
2018-05-27T08:22:51.455Z,74.12
2018-05-27T08:23:51.361Z,74.51
2018-05-27T08:24:51.342Z,74.12
2018-05-27T08:25:51.319Z,73.73
2018-05-27T08:26:51.298Z,73.44
2018-05-27T08:27:51.334Z,74.12
2018-05-27T08:28:51.305Z,74.06
2018-05-27T08:29:51.237Z,73.38
2018-05-27T08:30:51.223Z,72.32
2018-05-27T08:31:51.229Z,73.28
2018-05-27T08:32:52.037Z,72.61
2018-05-27T08:33:51.215Z,73.09
2018-05-27T08:34:51.186Z,72.80
2018-05-27T08:35:51.123Z,71.84
2018-05-27T08:36:51.097Z,71.64
2018-05-27T08:37:51.089Z,71.94
2018-05-27T08:38:51.115Z,72.52
2018-05-27T08:39:51.050Z,73.13
2018-05-27T08:40:51.017Z,72.16
2018-05-27T08:41:51.003Z,71.39
2018-05-27T08:42:50.984Z,71.48
2018-05-27T08:43:51.040Z,71.20
2018-05-27T08:44:50.937Z,70.81
2018-05-27T08:45:50.920Z,70.52
2018-05-27T08:46:50.902Z,69.65
2018-05-27T08:47:50.879Z,69.46
2018-05-27T08:48:50.949Z,70.04
2018-05-27T08:49:50.844Z,70.04
2018-05-27T08:50:50.823Z,70.23
2018-05-27T08:51:50.799Z,70.14
2018-05-27T08:52:50.786Z,69.84
2018-05-27T08:53:50.811Z,70.42
2018-05-27T08:54:50.810Z,70.52
2018-05-27T08:55:50.850Z,70.26
2018-05-27T08:56:50.753Z,70.46
2018-05-27T08:57:50.683Z,70.84
2018-05-27T08:58:50.671Z,68.91
2018-05-27T08:59:50.648Z,69.88
2018-05-27T09:00:50.626Z,68.04
2018-05-27T09:01:50.645Z,68.62
2018-05-27T09:02:50.607Z,69.68
2018-05-27T09:03:50.566Z,66.98
2018-05-27T09:04:50.553Z,66.98
2018-05-27T09:05:50.577Z,66.53
2018-05-27T09:06:50.570Z,65.66
2018-05-27T09:07:50.496Z,66.53
2018-05-27T09:08:50.479Z,66.14
2018-05-27T09:09:50.497Z,65.37
2018-05-27T09:10:50.432Z,65.27
2018-05-27T09:11:50.416Z,65.08
2018-05-27T09:12:51.058Z,65.85
2018-05-27T09:13:50.374Z,65.75
2018-05-27T09:14:50.412Z,65.08
2018-05-27T09:15:50.382Z,65.08
2018-05-27T09:16:50.368Z,65.56
2018-05-27T09:17:50.296Z,65.08
2018-05-27T09:18:50.338Z,65.17
2018-05-27T09:19:50.274Z,65.85
2018-05-27T09:20:50.249Z,64.72
2018-05-27T09:21:50.266Z,65.11
2018-05-27T09:22:51.062Z,65.01
2018-05-27T09:23:50.181Z,65.50
2018-05-27T09:24:50.245Z,65.11
2018-05-27T09:25:50.193Z,65.40
2018-05-27T09:26:50.126Z,65.01
2018-05-27T09:27:50.105Z,65.50
2018-05-27T09:28:50.141Z,64.53
2018-05-27T09:29:50.078Z,64.14
2018-05-27T09:30:50.059Z,64.43
2018-05-27T09:31:50.076Z,64.24
2018-05-27T09:32:50.015Z,64.24
2018-05-27T09:33:50.037Z,63.59
2018-05-27T09:34:50.049Z,63.49
2018-05-27T09:35:49.974Z,63.01
2018-05-27T09:36:49.952Z,64.37
2018-05-27T09:37:49.964Z,63.89
2018-05-27T09:38:49.961Z,63.69
2018-05-27T09:39:49.882Z,63.27
2018-05-27T09:40:49.870Z,63.08
2018-05-27T09:41:49.839Z,62.82
2018-05-27T09:42:49.835Z,63.21
2018-05-27T09:43:49.853Z,63.11
2018-05-27T09:44:49.792Z,62.24
2018-05-27T09:45:49.765Z,61.46
2018-05-27T09:46:49.787Z,60.11
2018-05-27T09:47:49.730Z,59.72
2018-05-27T09:48:49.720Z,59.84
2018-05-27T09:49:49.694Z,59.46
2018-05-27T09:50:49.676Z,58.30
2018-05-27T09:51:49.705Z,58.78
2018-05-27T09:52:49.645Z,61.01
2018-05-27T09:53:49.624Z,63.92
2018-05-27T09:54:49.615Z,64.40
2018-05-27T09:55:49.632Z,63.24
2018-05-27T09:56:49.572Z,59.56
2018-05-27T09:57:49.605Z,60.04
2018-05-27T09:58:49.527Z,60.43
2018-05-27T09:59:49.511Z,60.46
2018-05-27T10:00:49.539Z,61.14
2018-05-27T10:01:49.496Z,60.85
2018-05-27T10:02:49.456Z,59.49
2018-05-27T10:03:49.437Z,59.97
2018-05-27T10:04:49.421Z,59.69
2018-05-27T10:05:49.447Z,59.88
2018-05-27T10:06:49.400Z,59.20
2018-05-27T10:07:49.381Z,58.52
2018-05-27T10:08:49.349Z,58.81
2018-05-27T10:09:49.325Z,59.97
2018-05-27T10:10:49.373Z,59.97
2018-05-27T10:11:49.316Z,60.46
2018-05-27T10:12:49.332Z,59.59
2018-05-27T10:13:49.258Z,58.14
2018-05-27T10:14:49.245Z,58.52
2018-05-27T10:15:49.268Z,60.10
2018-05-27T10:16:49.205Z,60.10
2018-05-27T10:17:49.191Z,59.42
2018-05-27T10:18:49.212Z,59.52
2018-05-27T10:19:49.158Z,58.55
2018-05-27T10:20:49.135Z,58.55
2018-05-27T10:21:49.175Z,59.10
2018-05-27T10:22:49.097Z,58.42
2018-05-27T10:23:49.078Z,57.84
2018-05-27T10:24:49.065Z,57.26
2018-05-27T10:25:49.089Z,58.14
2018-05-27T10:26:49.087Z,57.26
2018-05-27T10:27:49.057Z,57.55
2018-05-27T10:28:49.007Z,58.16
2018-05-27T10:29:48.972Z,57.87
2018-05-27T10:30:48.958Z,58.65
2018-05-27T10:31:48.935Z,58.45
2018-05-27T10:32:49.013Z,57.87
2018-05-27T10:33:48.902Z,57.87
2018-05-27T10:34:48.897Z,57.87
2018-05-27T10:35:48.875Z,58.09
2018-05-27T10:36:48.848Z,56.25
2018-05-27T10:37:48.871Z,55.57
2018-05-27T10:38:48.871Z,54.90
2018-05-27T10:39:48.802Z,55.96
2018-05-27T10:40:48.779Z,55.57
2018-05-27T10:41:48.764Z,55.77
2018-05-27T10:42:48.784Z,55.38
2018-05-27T10:43:48.736Z,55.38
2018-05-27T10:44:48.756Z,55.47
2018-05-27T10:45:48.696Z,54.99
2018-05-27T10:46:48.675Z,52.56
2018-05-27T10:47:48.661Z,52.86
2018-05-27T10:48:48.642Z,53.83
2018-05-27T10:49:48.673Z,54.50
2018-05-27T10:50:48.604Z,54.80
2018-05-27T10:51:48.589Z,53.75
2018-05-27T10:52:48.567Z,53.73
2018-05-27T10:53:48.593Z,54.31
2018-05-27T10:54:48.576Z,53.92
2018-05-27T10:55:48.521Z,54.02
2018-05-27T10:56:48.493Z,53.73
2018-05-27T10:57:48.534Z,52.95
2018-05-27T10:58:48.462Z,53.15
2018-05-27T10:59:48.493Z,53.83
2018-05-27T11:00:48.420Z,52.47
2018-05-27T11:01:48.403Z,53.05
2018-05-27T11:02:48.441Z,52.28
2018-05-27T11:03:48.374Z,51.81
2018-05-27T11:04:48.353Z,52.56
2018-05-27T11:05:48.413Z,52.20
2018-05-27T11:06:48.315Z,52.01
2018-05-27T11:07:48.369Z,50.84
2018-05-27T11:08:48.280Z,50.94
2018-05-27T11:09:48.266Z,51.62
2018-05-27T11:10:48.262Z,51.06
2018-05-27T11:11:48.257Z,50.46
2018-05-27T11:12:48.262Z,50.26
2018-05-27T11:13:48.202Z,49.49
2018-05-27T11:14:48.191Z,49.68
2018-05-27T11:15:48.160Z,49.68
2018-05-27T11:16:48.190Z,48.80
2018-05-27T11:17:48.174Z,49.00
2018-05-27T11:18:48.153Z,49.68
2018-05-27T11:19:48.092Z,49.87
2018-05-27T11:20:48.140Z,50.46
2018-05-27T11:21:48.103Z,50.26
2018-05-27T11:22:48.035Z,49.77
2018-05-27T11:23:48.060Z,50.26
2018-05-27T11:24:48.005Z,48.80
2018-05-27T11:25:47.986Z,49.22
2018-05-27T11:26:47.966Z,48.73
2018-05-27T11:27:47.993Z,49.02
2018-05-27T11:28:47.927Z,48.54
2018-05-27T11:29:47.915Z,48.83
2018-05-27T11:30:47.895Z,48.05
2018-05-27T11:31:47.992Z,48.15
2018-05-27T11:32:47.922Z,47.76
2018-05-27T11:33:47.843Z,49.02
2018-05-27T11:34:49.498Z,47.86
2018-05-27T11:35:47.808Z,48.54
2018-05-27T11:36:47.785Z,48.93
2018-05-27T11:37:47.828Z,48.44
2018-05-27T11:38:47.776Z,48.93
2018-05-27T11:39:47.797Z,49.61
2018-05-27T11:40:47.714Z,49.32
2018-05-27T11:41:47.703Z,49.41
2018-05-27T11:42:47.763Z,49.39
2018-05-27T11:43:47.717Z,48.90
2018-05-27T11:44:47.650Z,49.77
2018-05-27T11:45:47.628Z,49.77
2018-05-27T11:46:47.609Z,49.87
2018-05-27T11:47:47.638Z,50.07
2018-05-27T11:48:47.792Z,49.77
2018-05-27T11:49:47.588Z,49.02
2018-05-27T11:50:47.553Z,49.22
2018-05-27T11:51:47.573Z,49.02
2018-05-27T11:52:47.575Z,49.22
2018-05-27T11:53:48.124Z,49.15
2018-05-27T11:54:47.607Z,49.54
2018-05-27T11:55:47.469Z,49.54
2018-05-27T11:56:47.453Z,49.15
2018-05-27T11:57:47.466Z,49.34
2018-05-27T11:58:47.495Z,49.15
2018-05-27T11:59:47.397Z,48.68
2018-05-27T12:00:47.381Z,49.07
2018-05-27T12:01:47.412Z,47.64
2018-05-27T12:02:47.345Z,47.25
2018-05-27T12:03:47.380Z,46.59
2018-05-27T12:04:47.320Z,46.88
2018-05-27T12:05:47.291Z,46.88
2018-05-27T12:06:47.291Z,46.18
2018-05-27T12:07:47.322Z,46.28
2018-05-27T12:08:47.320Z,46.08
2018-05-27T12:09:47.341Z,46.35
2018-05-27T12:10:47.210Z,46.86
2018-05-27T12:11:47.265Z,46.47
2018-05-27T12:12:47.208Z,46.40
2018-05-27T12:13:47.174Z,44.14
2018-05-27T12:14:47.298Z,44.24
2018-05-27T12:15:47.253Z,44.14
2018-05-27T12:16:47.105Z,44.04
2018-05-27T12:17:47.122Z,44.33
2018-05-27T12:18:47.097Z,44.92
2018-05-27T12:19:47.158Z,45.21
2018-05-27T12:20:47.048Z,44.82
2018-05-27T12:21:47.039Z,45.50
2018-05-27T12:22:47.034Z,44.72
2018-05-27T12:23:47.015Z,44.82
2018-05-27T12:24:47.096Z,44.62
2018-05-27T12:25:46.967Z,44.72
2018-05-27T12:26:46.948Z,44.60
2018-05-27T12:27:46.929Z,44.33
2018-05-27T12:28:46.938Z,44.89
2018-05-27T12:29:46.975Z,45.28
2018-05-27T12:30:46.881Z,45.21
2018-05-27T12:31:46.865Z,44.70
2018-05-27T12:32:46.871Z,44.99
2018-05-27T12:33:46.876Z,45.67
2018-05-27T12:34:46.808Z,45.09
2018-05-27T12:35:46.795Z,45.09
2018-05-27T12:36:46.835Z,45.09
2018-05-27T12:37:46.760Z,46.06
2018-05-27T12:38:46.746Z,46.15
2018-05-27T12:39:46.726Z,47.81
2018-05-27T12:40:46.730Z,50.24
2018-05-27T12:41:46.747Z,52.45
2018-05-27T12:42:46.729Z,54.39
2018-05-27T12:43:46.660Z,56.82
2018-05-27T12:44:46.638Z,59.92
2018-05-27T12:45:46.624Z,61.65
2018-05-27T12:46:46.608Z,65.30
2018-05-27T12:47:46.639Z,67.14
2018-05-27T12:48:46.579Z,68.76
2018-05-27T12:49:46.606Z,71.54
2018-05-27T12:50:46.540Z,74.26
2018-05-27T12:51:46.542Z,75.87